Wilson Lahn — 8PUO — position and weather

sailwx.info

Track history (hours):
 
Tides and Currents Weather Stations Pressure Air Temp Water Temp Dewpoint Dewpoint Depression Visibility Wind Speed Wind Dir Waves Ship Positions

Wilson Lahn

Last reported at 2014-Jul-30 18:30 UTC. Time now 2014-Jul-30 19:11 UTC.
Position N 57°09' W 002°05'.

Length 83 m; draft 3.2 m.

Type: Cargo ship. MMSI: 314259000.

Date/timePositionNaut miles runAvg speedWind from/ knotsBaromVisibWave heightAir tempDewpointWater temp
2014-Jul-30 18:30N 57°09' W 002°05'0 0.0
2014-Jul-30 17:24N 57°09' W 002°05'0 0.0
2014-Jul-30 16:30N 57°09' W 002°05'0 0.0
2014-Jul-30 14:24N 57°09' W 002°05'0 0.0
2014-Jul-30 13:30N 57°09' W 002°05'0 0.0
2014-Jul-30 12:18N 57°09' W 002°05'0 0.0
2014-Jul-30 11:30N 57°09' W 002°05'0 0.0
2014-Jul-30 10:30N 57°09' W 002°05'0 0.0
2014-Jul-30 08:30N 57°09' W 002°05'0 0.0
2014-Jul-30 04:18N 57°09' W 002°05'0 0.0
2014-Jul-30 03:18N 57°09' W 002°05'12 0.3
2014-Jul-28 04:32N 57°18' W 001°51'9 9.3
2014-Jul-28 03:34N 57°25' W 001°42'9 9.2
2014-Jul-28 02:33N 57°34' W 001°39'9 9.0
2014-Jul-28 01:33N 57°42' W 001°47'9 9.0
2014-Jul-28 00:33N 57°46' W 002°03'  
2014-Jul-22 19:14N 60°15' E 005°09'811.3
2014-Jul-22 18:32N 60°23' E 005°10'5 0.2
2014-Jul-21 18:23N 60°25' E 005°00'2 1.9
2014-Jul-21 17:33N 60°27' E 005°01'  
Track history (hours):
 
Tides and Currents Weather Stations Pressure Air Temp Water Temp Dewpoint Dewpoint Depression Visibility Wind Speed Wind Dir Waves Ship Positions

Wilson Lahn

Last reported at 2014-Jul-30 18:30 UTC. Time now 2014-Jul-30 19:11 UTC.
Position N 57°09' W 002°05'.

Length 83 m; draft 3.2 m.

Type: Cargo ship. MMSI: 314259000.

Date/timePositionNaut miles runAvg speedWind from/ knotsBaromVisibWave heightAir tempDewpointWater temp
2014-Jul-30 18:30N 57°09' W 002°05'0 0.0
2014-Jul-30 17:24N 57°09' W 002°05'0 0.0
2014-Jul-30 16:30N 57°09' W 002°05'0 0.0
2014-Jul-30 14:24N 57°09' W 002°05'0 0.0
2014-Jul-30 13:30N 57°09' W 002°05'0 0.0
2014-Jul-30 12:18N 57°09' W 002°05'0 0.0
2014-Jul-30 11:30N 57°09' W 002°05'0 0.0
2014-Jul-30 10:30N 57°09' W 002°05'0 0.0
2014-Jul-30 08:30N 57°09' W 002°05'0 0.0
2014-Jul-30 04:18N 57°09' W 002°05'0 0.0
2014-Jul-30 03:18N 57°09' W 002°05'12 0.3
2014-Jul-28 04:32N 57°18' W 001°51'9 9.3
2014-Jul-28 03:34N 57°25' W 001°42'9 9.2
2014-Jul-28 02:33N 57°34' W 001°39'9 9.0
2014-Jul-28 01:33N 57°42' W 001°47'9 9.0
2014-Jul-28 00:33N 57°46' W 002°03'  
2014-Jul-22 19:14N 60°15' E 005°09'811.3
2014-Jul-22 18:32N 60°23' E 005°10'5 0.2
2014-Jul-21 18:23N 60°25' E 005°00'2 1.9
2014-Jul-21 17:33N 60°27' E 005°01'  

Dump ship's entire track history